createdAt,value
2018-09-12T00:00:00.094Z,793.42
2018-09-12T00:00:04.188Z,793.46
2018-09-12T00:00:08.503Z,793.42
2018-09-12T00:00:12.819Z,793.46
2018-09-12T00:00:17.124Z,793.5
2018-09-12T00:00:21.436Z,793.48
2018-09-12T00:00:25.528Z,793.46
2018-09-12T00:00:29.831Z,793.42
2018-09-12T00:00:34.132Z,793.47
2018-09-12T00:00:38.447Z,793.47
2018-09-12T00:00:42.546Z,793.43
2018-09-12T00:00:46.634Z,793.45
2018-09-12T00:00:50.844Z,793.45
2018-09-12T00:00:54.830Z,793.43
2018-09-12T00:00:59.150Z,793.45
2018-09-12T00:01:03.143Z,793.42
2018-09-12T00:01:07.239Z,793.44
2018-09-12T00:01:11.337Z,793.44
2018-09-12T00:01:15.539Z,793.43
2018-09-12T00:01:19.731Z,793.47
2018-09-12T00:01:23.826Z,793.43
2018-09-12T00:01:27.707Z,793.44
2018-09-12T00:01:31.906Z,793.41
2018-09-12T00:01:36.217Z,793.42
2018-09-12T00:01:40.414Z,793.42
2018-09-12T00:01:44.402Z,793.43
2018-09-12T00:01:48.502Z,793.41
2018-09-12T00:01:52.606Z,793.45
2018-09-12T00:01:56.716Z,793.4
2018-09-12T00:02:00.820Z,793.43
2018-09-12T00:02:04.703Z,793.4
2018-09-12T00:02:08.692Z,793.42
2018-09-12T00:02:12.792Z,793.45
2018-09-12T00:02:16.996Z,793.43
2018-09-12T00:02:21.194Z,793.43
2018-09-12T00:02:25.282Z,793.4
2018-09-12T00:02:29.374Z,793.42
2018-09-12T00:02:33.473Z,793.42
2018-09-12T00:02:37.580Z,793.43
2018-09-12T00:02:41.669Z,793.41
2018-09-12T00:02:45.871Z,793.4
2018-09-12T00:02:50.069Z,793.41
2018-09-12T00:02:54.282Z,793.41
2018-09-12T00:02:58.483Z,793.43
2018-09-12T00:03:02.689Z,793.35
2018-09-12T00:03:06.780Z,793.43
2018-09-12T00:03:10.763Z,793.41
2018-09-12T00:03:14.972Z,793.44
2018-09-12T00:03:19.169Z,793.44
2018-09-12T00:03:23.384Z,793.42
2018-09-12T00:03:27.588Z,793.38
2018-09-12T00:03:31.797Z,793.36
2018-09-12T00:03:35.998Z,793.36
2018-09-12T00:03:40.334Z,793.42
2018-09-12T00:03:44.544Z,793.39
2018-09-12T00:03:48.642Z,793.41
2018-09-12T00:03:52.736Z,793.4
2018-09-12T00:03:56.722Z,793.4
2018-09-12T00:04:00.814Z,793.41
2018-09-12T00:04:05.121Z,793.4
2018-09-12T00:04:09.316Z,793.37
2018-09-12T00:04:13.625Z,793.4
2018-09-12T00:04:17.733Z,793.38
2018-09-12T00:04:21.943Z,793.38
2018-09-12T00:04:26.156Z,793.37
2018-09-12T00:04:30.245Z,793.4
2018-09-12T00:04:34.450Z,793.38
2018-09-12T00:04:38.654Z,793.4
2018-09-12T00:04:42.642Z,793.35
2018-09-12T00:04:46.733Z,793.34
2018-09-12T00:04:50.935Z,793.36
2018-09-12T00:04:55.132Z,793.37
2018-09-12T00:04:59.336Z,793.38
2018-09-12T00:05:03.458Z,793.38
2018-09-12T00:05:07.551Z,793.35
2018-09-12T00:05:11.646Z,793.37
2018-09-12T00:05:15.955Z,793.37
2018-09-12T00:05:20.276Z,793.27
2018-09-12T00:05:24.589Z,793.36
2018-09-12T00:05:28.736Z,793.38
2018-09-12T00:05:32.945Z,793.33
2018-09-12T00:05:37.151Z,793.36
2018-09-12T00:05:41.463Z,793.36
2018-09-12T00:05:45.555Z,793.33
2018-09-12T00:05:49.754Z,793.3
2018-09-12T00:05:53.867Z,793.36
2018-09-12T00:05:58.175Z,793.34
2018-09-12T00:06:02.485Z,793.32
2018-09-12T00:06:06.575Z,793.31
2018-09-12T00:06:10.777Z,793.31
2018-09-12T00:06:14.972Z,793.35
2018-09-12T00:06:19.072Z,793.32
2018-09-12T00:06:23.270Z,793.38
2018-09-12T00:06:27.375Z,793.33
2018-09-12T00:06:31.679Z,793.34
2018-09-12T00:06:35.880Z,793.32
2018-09-12T00:06:40.204Z,793.33
2018-09-12T00:06:44.407Z,793.35
2018-09-12T00:06:48.289Z,793.38
2018-09-12T00:06:52.278Z,793.37
2018-09-12T00:06:56.588Z,793.38
2018-09-12T00:07:00.677Z,793.37
2018-09-12T00:07:04.772Z,793.38
2018-09-12T00:07:09.083Z,793.36
2018-09-12T00:07:13.400Z,793.38
2018-09-12T00:07:17.606Z,793.35
2018-09-12T00:07:21.807Z,793.39
2018-09-12T00:07:26.006Z,793.36
2018-09-12T00:07:30.206Z,793.38
2018-09-12T00:07:34.300Z,793.37
2018-09-12T00:07:38.512Z,793.39
2018-09-12T00:07:42.720Z,793.37
2018-09-12T00:07:47.030Z,793.38
2018-09-12T00:07:51.022Z,793.41
2018-09-12T00:07:55.336Z,793.38
2018-09-12T00:07:59.535Z,793.4
2018-09-12T00:08:03.524Z,793.4
2018-09-12T00:08:07.615Z,793.39
2018-09-12T00:08:11.955Z,793.4
2018-09-12T00:08:16.050Z,793.39
2018-09-12T00:08:20.154Z,793.41
2018-09-12T00:08:24.360Z,793.37
2018-09-12T00:08:28.567Z,793.38
2018-09-12T00:08:32.551Z,793.42
2018-09-12T00:08:36.859Z,793.41
2018-09-12T00:08:41.054Z,793.42
2018-09-12T00:08:45.049Z,793.4
2018-09-12T00:08:49.157Z,793.44
2018-09-12T00:08:53.461Z,793.4
2018-09-12T00:08:57.555Z,793.41
2018-09-12T00:09:01.753Z,793.41
2018-09-12T00:09:05.638Z,793.47
2018-09-12T00:09:09.735Z,793.4
2018-09-12T00:09:13.938Z,793.41
2018-09-12T00:09:18.249Z,793.42
2018-09-12T00:09:22.235Z,793.42
2018-09-12T00:09:26.437Z,793.39
2018-09-12T00:09:30.752Z,793.38
2018-09-12T00:09:34.949Z,793.39
2018-09-12T00:09:39.048Z,793.4
2018-09-12T00:09:43.236Z,793.39
2018-09-12T00:09:47.290Z,793.41
2018-09-12T00:09:51.391Z,793.37
2018-09-12T00:09:55.697Z,793.42
2018-09-12T00:09:59.901Z,793.41
2018-09-12T00:10:03.995Z,793.42
2018-09-12T00:10:08.201Z,793.39
2018-09-12T00:10:12.413Z,793.43
2018-09-12T00:10:16.716Z,793.38
2018-09-12T00:10:20.917Z,793.39
2018-09-12T00:10:25.125Z,793.39
2018-09-12T00:10:29.433Z,793.41
2018-09-12T00:10:33.639Z,793.42
2018-09-12T00:10:37.738Z,793.38
2018-09-12T00:10:42.057Z,793.36
2018-09-12T00:10:46.362Z,793.37
2018-09-12T00:10:50.466Z,793.39
2018-09-12T00:10:54.783Z,793.44
2018-09-12T00:10:58.998Z,793.4
2018-09-12T00:11:03.198Z,793.42
2018-09-12T00:11:07.395Z,793.38
2018-09-12T00:11:11.596Z,793.39
2018-09-12T00:11:15.797Z,793.34
2018-09-12T00:11:20.000Z,793.4
2018-09-12T00:11:24.315Z,793.4
2018-09-12T00:11:28.406Z,793.42
2018-09-12T00:11:32.717Z,793.39
2018-09-12T00:11:36.808Z,793.4
2018-09-12T00:11:41.012Z,793.38
2018-09-12T00:11:45.105Z,793.41
2018-09-12T00:11:49.205Z,793.43
2018-09-12T00:11:53.411Z,793.4
2018-09-12T00:11:57.613Z,793.43
2018-09-12T00:12:01.813Z,793.42
2018-09-12T00:12:05.911Z,793.43
2018-09-12T00:12:10.002Z,793.43
2018-09-12T00:12:14.199Z,793.43
2018-09-12T00:12:18.188Z,793.4
2018-09-12T00:12:22.286Z,793.43
2018-09-12T00:12:26.488Z,793.44
2018-09-12T00:12:30.582Z,793.42
2018-09-12T00:12:34.784Z,793.44
2018-09-12T00:12:38.872Z,793.43
2018-09-12T00:12:43.069Z,793.45
2018-09-12T00:12:47.375Z,793.41
2018-09-12T00:12:51.673Z,793.42
2018-09-12T00:12:55.874Z,793.43
2018-09-12T00:13:00.080Z,793.47
2018-09-12T00:13:04.176Z,793.44
2018-09-12T00:13:08.487Z,793.42
2018-09-12T00:13:12.792Z,793.46
2018-09-12T00:13:16.889Z,793.47
2018-09-12T00:13:21.090Z,793.5
2018-09-12T00:13:25.181Z,793.42
2018-09-12T00:13:29.427Z,793.48
2018-09-12T00:13:33.421Z,793.49
2018-09-12T00:13:37.738Z,793.46
2018-09-12T00:13:41.937Z,793.47
2018-09-12T00:13:45.815Z,793.46
2018-09-12T00:13:50.125Z,793.48
2018-09-12T00:13:54.324Z,793.44
2018-09-12T00:13:58.629Z,793.47
2018-09-12T00:14:02.725Z,793.48
2018-09-12T00:14:06.925Z,793.49
2018-09-12T00:14:11.123Z,793.47
2018-09-12T00:14:15.218Z,793.51
2018-09-12T00:14:19.424Z,793.47
2018-09-12T00:14:23.632Z,793.5
2018-09-12T00:14:27.720Z,793.49
2018-09-12T00:14:32.066Z,793.49
2018-09-12T00:14:36.158Z,793.49
2018-09-12T00:14:40.353Z,793.51
2018-09-12T00:14:44.453Z,793.49
2018-09-12T00:14:48.649Z,793.51
2018-09-12T00:14:52.853Z,793.5
2018-09-12T00:14:56.950Z,793.51
2018-09-12T00:15:01.256Z,793.48
2018-09-12T00:15:05.446Z,793.44
2018-09-12T00:15:09.539Z,793.45
2018-09-12T00:15:13.741Z,793.45
2018-09-12T00:15:17.842Z,793.45
2018-09-12T00:15:21.953Z,793.52
2018-09-12T00:15:26.047Z,793.49
2018-09-12T00:15:30.144Z,793.55
2018-09-12T00:15:34.140Z,793.49
2018-09-12T00:15:38.231Z,793.54
2018-09-12T00:15:42.218Z,793.55
2018-09-12T00:15:46.421Z,793.53
2018-09-12T00:15:50.515Z,793.52
2018-09-12T00:15:54.732Z,793.5
2018-09-12T00:15:59.034Z,793.55
2018-09-12T00:16:03.238Z,793.52
2018-09-12T00:16:07.439Z,793.52
2018-09-12T00:16:11.536Z,793.56
2018-09-12T00:16:15.845Z,793.56
2018-09-12T00:16:20.044Z,793.53
2018-09-12T00:16:24.245Z,793.58
2018-09-12T00:16:28.270Z,793.54
2018-09-12T00:16:32.365Z,793.58
2018-09-12T00:16:36.466Z,793.55
2018-09-12T00:16:40.775Z,793.55
2018-09-12T00:16:44.973Z,793.55
2018-09-12T00:16:49.065Z,793.55
2018-09-12T00:16:53.161Z,793.56
2018-09-12T00:16:57.365Z,793.55
2018-09-12T00:17:01.561Z,793.57
2018-09-12T00:17:05.658Z,793.57
2018-09-12T00:17:09.647Z,793.52
2018-09-12T00:17:13.853Z,793.6
2018-09-12T00:17:18.056Z,793.59
2018-09-12T00:17:22.046Z,793.59
2018-09-12T00:17:26.352Z,793.55
2018-09-12T00:17:30.556Z,793.56
2018-09-12T00:17:34.754Z,793.58
2018-09-12T00:17:38.850Z,793.55
2018-09-12T00:17:42.940Z,793.52
2018-09-12T00:17:47.146Z,793.57
2018-09-12T00:17:51.247Z,793.58
2018-09-12T00:17:55.550Z,793.6
2018-09-12T00:17:59.863Z,793.57
2018-09-12T00:18:03.896Z,793.58
2018-09-12T00:18:08.100Z,793.61
2018-09-12T00:18:12.301Z,793.57
2018-09-12T00:18:16.501Z,793.57
2018-09-12T00:18:20.807Z,793.56
2018-09-12T00:18:24.793Z,793.59
2018-09-12T00:18:28.993Z,793.6
2018-09-12T00:18:33.098Z,793.59
2018-09-12T00:18:37.294Z,793.59
2018-09-12T00:18:41.500Z,793.52
2018-09-12T00:18:45.806Z,793.61
2018-09-12T00:18:50.009Z,793.59
2018-09-12T00:18:54.211Z,793.59
2018-09-12T00:18:58.307Z,793.54
2018-09-12T00:19:02.407Z,793.59
2018-09-12T00:19:06.611Z,793.59
2018-09-12T00:19:10.826Z,793.57
2018-09-12T00:19:15.142Z,793.59
2018-09-12T00:19:19.406Z,793.59
2018-09-12T00:19:23.617Z,793.59
2018-09-12T00:19:27.719Z,793.57
2018-09-12T00:19:31.818Z,793.57
2018-09-12T00:19:35.910Z,793.59
2018-09-12T00:19:40.221Z,793.53
2018-09-12T00:19:44.435Z,793.58
2018-09-12T00:19:48.743Z,793.59
2018-09-12T00:19:53.001Z,793.59
2018-09-12T00:19:57.208Z,793.56
2018-09-12T00:20:01.412Z,793.56
2018-09-12T00:20:05.515Z,793.52
2018-09-12T00:20:09.824Z,793.52
2018-09-12T00:20:14.033Z,793.52
2018-09-12T00:20:18.127Z,793.59
2018-09-12T00:20:22.226Z,793.58
2018-09-12T00:20:26.429Z,793.55
2018-09-12T00:20:30.412Z,793.57
2018-09-12T00:20:34.603Z,793.54
2018-09-12T00:20:38.800Z,793.52
2018-09-12T00:20:43.114Z,793.59
2018-09-12T00:20:47.436Z,793.56
2018-09-12T00:20:51.752Z,793.58
2018-09-12T00:20:55.636Z,793.57
2018-09-12T00:21:00.096Z,793.58
2018-09-12T00:21:04.526Z,793.57
2018-09-12T00:21:09.283Z,793.6
2018-09-12T00:21:13.861Z,793.58
2018-09-12T00:21:19.300Z,793.59
2018-09-12T00:21:23.287Z,793.6
2018-09-12T00:21:27.276Z,793.6
2018-09-12T00:21:31.589Z,793.57
2018-09-12T00:21:35.472Z,793.54
2018-09-12T00:21:39.786Z,793.55
2018-09-12T00:21:43.879Z,793.56
2018-09-12T00:21:47.982Z,793.56
2018-09-12T00:21:52.188Z,793.57
2018-09-12T00:21:56.400Z,793.54
2018-09-12T00:22:00.608Z,793.57
2018-09-12T00:22:04.828Z,793.54
2018-09-12T00:22:09.030Z,793.54
2018-09-12T00:22:13.234Z,793.59
2018-09-12T00:22:17.218Z,793.57
2018-09-12T00:22:21.551Z,793.56
2018-09-12T00:22:25.752Z,793.54
2018-09-12T00:22:29.955Z,793.57
2018-09-12T00:22:34.158Z,793.54
2018-09-12T00:22:38.151Z,793.55
2018-09-12T00:22:42.240Z,793.57
2018-09-12T00:22:46.552Z,793.56
2018-09-12T00:22:50.651Z,793.51
2018-09-12T00:22:54.872Z,793.54
2018-09-12T00:22:59.071Z,793.57
2018-09-12T00:23:03.267Z,793.58
2018-09-12T00:23:07.313Z,793.58
2018-09-12T00:23:11.629Z,793.59
2018-09-12T00:23:15.825Z,793.57
2018-09-12T00:23:19.817Z,793.6
2018-09-12T00:23:23.913Z,793.54
2018-09-12T00:23:28.220Z,793.55
2018-09-12T00:23:32.433Z,793.55
2018-09-12T00:23:36.758Z,793.57
2018-09-12T00:23:40.957Z,793.59
2018-09-12T00:23:45.165Z,793.53
2018-09-12T00:23:49.365Z,793.56
2018-09-12T00:23:53.464Z,793.59
2018-09-12T00:23:57.562Z,793.58
2018-09-12T00:24:01.761Z,793.57
2018-09-12T00:24:06.171Z,793.55
2018-09-12T00:24:10.375Z,793.53
2018-09-12T00:24:14.689Z,793.54
2018-09-12T00:24:18.901Z,793.57
2018-09-12T00:24:23.110Z,793.57
2018-09-12T00:24:27.328Z,793.55
2018-09-12T00:24:31.532Z,793.56
2018-09-12T00:24:35.739Z,793.56
2018-09-12T00:24:39.936Z,793.57
2018-09-12T00:24:44.029Z,793.57
2018-09-12T00:24:48.240Z,793.54
2018-09-12T00:24:52.546Z,793.54
2018-09-12T00:24:56.749Z,793.56
2018-09-12T00:25:01.065Z,793.54
2018-09-12T00:25:05.051Z,793.51
2018-09-12T00:25:09.251Z,793.56
2018-09-12T00:25:13.567Z,793.51
2018-09-12T00:25:17.868Z,793.54
2018-09-12T00:25:22.176Z,793.57
2018-09-12T00:25:26.480Z,793.52
2018-09-12T00:25:30.795Z,793.56
2018-09-12T00:25:35.063Z,793.52
2018-09-12T00:25:39.153Z,793.53
2018-09-12T00:25:43.353Z,793.55
2018-09-12T00:25:47.448Z,793.56
2018-09-12T00:25:51.458Z,793.56
2018-09-12T00:25:55.778Z,793.56
2018-09-12T00:26:00.136Z,793.53
2018-09-12T00:26:04.341Z,793.56
2018-09-12T00:26:08.542Z,793.55
2018-09-12T00:26:12.747Z,793.57
2018-09-12T00:26:16.844Z,793.56
2018-09-12T00:26:21.152Z,793.55
2018-09-12T00:26:25.144Z,793.55
2018-09-12T00:26:29.347Z,793.57
2018-09-12T00:26:33.660Z,793.57
2018-09-12T00:26:37.974Z,793.59
2018-09-12T00:26:42.178Z,793.56
2018-09-12T00:26:46.382Z,793.57
2018-09-12T00:26:50.750Z,793.56
2018-09-12T00:26:54.737Z,793.55
2018-09-12T00:26:58.948Z,793.56
2018-09-12T00:27:03.096Z,793.52
2018-09-12T00:27:06.980Z,793.56
2018-09-12T00:27:11.287Z,793.54
2018-09-12T00:27:15.487Z,793.53
2018-09-12T00:27:19.796Z,793.53
2018-09-12T00:27:24.107Z,793.53
2018-09-12T00:27:28.101Z,793.56
2018-09-12T00:27:32.300Z,793.55
2018-09-12T00:27:36.661Z,793.5
2018-09-12T00:27:40.758Z,793.56
2018-09-12T00:27:44.853Z,793.53
2018-09-12T00:27:48.958Z,793.5
2018-09-12T00:27:53.270Z,793.5
2018-09-12T00:27:57.578Z,793.53
2018-09-12T00:28:01.890Z,793.51
2018-09-12T00:28:06.033Z,793.52
2018-09-12T00:28:10.235Z,793.51
2018-09-12T00:28:14.544Z,793.51
2018-09-12T00:28:18.858Z,793.51
2018-09-12T00:28:23.068Z,793.55
2018-09-12T00:28:27.371Z,793.51
2018-09-12T00:28:31.472Z,793.51
2018-09-12T00:28:35.785Z,793.45
2018-09-12T00:28:40.102Z,793.52
2018-09-12T00:28:44.313Z,793.51
2018-09-12T00:28:48.410Z,793.45
2018-09-12T00:28:52.649Z,793.46
2018-09-12T00:28:56.965Z,793.5
2018-09-12T00:29:01.057Z,793.52
2018-09-12T00:29:05.161Z,793.5
2018-09-12T00:29:09.363Z,793.5
2018-09-12T00:29:13.580Z,793.5
2018-09-12T00:29:17.886Z,793.49
2018-09-12T00:29:22.085Z,793.47
2018-09-12T00:29:26.328Z,793.46
2018-09-12T00:29:30.418Z,793.49
2018-09-12T00:29:34.628Z,793.49
2018-09-12T00:29:38.945Z,793.46
2018-09-12T00:29:43.152Z,793.51
2018-09-12T00:29:47.464Z,793.5
2018-09-12T00:29:51.779Z,793.44
2018-09-12T00:29:55.979Z,793.45
2018-09-12T00:30:00.177Z,793.51
2018-09-12T00:30:04.277Z,793.47
2018-09-12T00:30:08.594Z,793.51
2018-09-12T00:30:12.803Z,793.46
2018-09-12T00:30:16.892Z,793.46
2018-09-12T00:30:21.091Z,793.47
2018-09-12T00:30:25.396Z,793.49
2018-09-12T00:30:29.708Z,793.49
2018-09-12T00:30:34.018Z,793.49
2018-09-12T00:30:38.329Z,793.46
2018-09-12T00:30:42.649Z,793.47
2018-09-12T00:30:46.845Z,793.43
2018-09-12T00:30:51.052Z,793.4
2018-09-12T00:30:55.356Z,793.45
2018-09-12T00:30:59.562Z,793.44
2018-09-12T00:31:03.851Z,793.42
2018-09-12T00:31:08.159Z,793.47
2018-09-12T00:31:12.360Z,793.44
2018-09-12T00:31:16.560Z,793.45
2018-09-12T00:31:20.861Z,793.44
2018-09-12T00:31:25.166Z,793.47
2018-09-12T00:31:29.372Z,793.42
2018-09-12T00:31:33.357Z,793.42
2018-09-12T00:31:37.445Z,793.4
2018-09-12T00:31:41.658Z,793.42
2018-09-12T00:31:45.869Z,793.45
2018-09-12T00:31:50.069Z,793.41
2018-09-12T00:31:54.183Z,793.42
2018-09-12T00:31:58.498Z,793.43
2018-09-12T00:32:02.834Z,793.4
2018-09-12T00:32:07.147Z,793.42
2018-09-12T00:32:11.457Z,793.39
2018-09-12T00:32:15.761Z,793.44
2018-09-12T00:32:19.970Z,793.4
2018-09-12T00:32:24.276Z,793.39
2018-09-12T00:32:28.373Z,793.41
2018-09-12T00:32:32.582Z,793.4
2018-09-12T00:32:36.679Z,793.39
2018-09-12T00:32:40.977Z,793.42
2018-09-12T00:32:45.179Z,793.38
2018-09-12T00:32:49.379Z,793.39
2018-09-12T00:32:53.706Z,793.36
2018-09-12T00:32:58.012Z,793.35
2018-09-12T00:33:02.363Z,793.36
2018-09-12T00:33:06.578Z,793.37
2018-09-12T00:33:10.792Z,793.37
2018-09-12T00:33:14.995Z,793.38
2018-09-12T00:33:19.298Z,793.35
2018-09-12T00:33:23.494Z,793.37
2018-09-12T00:33:27.797Z,793.35
2018-09-12T00:33:32.105Z,793.38
2018-09-12T00:33:36.320Z,793.35
2018-09-12T00:33:40.521Z,793.38
2018-09-12T00:33:44.730Z,793.38
2018-09-12T00:33:49.044Z,793.38
2018-09-12T00:33:53.355Z,793.35
2018-09-12T00:33:57.566Z,793.35
2018-09-12T00:34:01.670Z,793.37
2018-09-12T00:34:06.146Z,793.41
2018-09-12T00:34:10.343Z,793.39
2018-09-12T00:34:14.663Z,793.39
2018-09-12T00:34:18.860Z,793.32
2018-09-12T00:34:23.058Z,793.35
2018-09-12T00:34:27.046Z,793.35
2018-09-12T00:34:31.250Z,793.42
2018-09-12T00:34:35.560Z,793.39
2018-09-12T00:34:39.766Z,793.43
2018-09-12T00:34:44.077Z,793.4
2018-09-12T00:34:48.390Z,793.41
2018-09-12T00:34:52.586Z,793.4
2018-09-12T00:34:56.683Z,793.37
2018-09-12T00:35:00.783Z,793.39
2018-09-12T00:35:05.063Z,793.34
2018-09-12T00:35:09.372Z,793.38
2018-09-12T00:35:13.583Z,793.4
2018-09-12T00:35:17.905Z,793.39
2018-09-12T00:35:22.215Z,793.4
2018-09-12T00:35:26.415Z,793.42
2018-09-12T00:35:30.625Z,793.43
2018-09-12T00:35:34.826Z,793.43
2018-09-12T00:35:38.921Z,793.41
2018-09-12T00:35:43.117Z,793.42
2018-09-12T00:35:47.422Z,793.43
2018-09-12T00:35:51.737Z,793.43
2018-09-12T00:35:56.040Z,793.4
2018-09-12T00:36:00.141Z,793.42
2018-09-12T00:36:04.235Z,793.39
2018-09-12T00:36:08.436Z,793.4
2018-09-12T00:36:12.529Z,793.42
2018-09-12T00:36:16.838Z,793.41
2018-09-12T00:36:21.139Z,793.35
2018-09-12T00:36:25.345Z,793.35
2018-09-12T00:36:29.446Z,793.37
2018-09-12T00:36:33.537Z,793.41
2018-09-12T00:36:37.628Z,793.41
2018-09-12T00:36:41.937Z,793.41
2018-09-12T00:36:46.247Z,793.41
2018-09-12T00:36:50.456Z,793.4
2018-09-12T00:36:54.765Z,793.37
2018-09-12T00:36:58.976Z,793.43
2018-09-12T00:37:03.280Z,793.4
2018-09-12T00:37:07.372Z,793.37
2018-09-12T00:37:11.471Z,793.4
2018-09-12T00:37:15.679Z,793.41
2018-09-12T00:37:19.992Z,793.37
2018-09-12T00:37:24.196Z,793.36
2018-09-12T00:37:28.396Z,793.4
2018-09-12T00:37:32.598Z,793.36
2018-09-12T00:37:36.912Z,793.35
2018-09-12T00:37:41.122Z,793.37
2018-09-12T00:37:45.429Z,793.33
2018-09-12T00:37:49.531Z,793.36
2018-09-12T00:37:53.514Z,793.29
2018-09-12T00:37:57.710Z,793.35
2018-09-12T00:38:02.022Z,793.28
2018-09-12T00:38:06.165Z,793.35
2018-09-12T00:38:10.369Z,793.32
2018-09-12T00:38:14.468Z,793.35
2018-09-12T00:38:18.770Z,793.34
2018-09-12T00:38:22.966Z,793.3
2018-09-12T00:38:27.169Z,793.28
2018-09-12T00:38:31.428Z,793.31
2018-09-12T00:38:35.626Z,793.32
2018-09-12T00:38:39.932Z,793.33
2018-09-12T00:38:44.027Z,793.33
2018-09-12T00:38:48.228Z,793.31
2018-09-12T00:38:52.526Z,793.29
2018-09-12T00:38:56.732Z,793.29
2018-09-12T00:39:00.718Z,793.31
2018-09-12T00:39:04.865Z,793.31
2018-09-12T00:39:08.851Z,793.27
2018-09-12T00:39:13.053Z,793.31
2018-09-12T00:39:17.257Z,793.28
2018-09-12T00:39:21.568Z,793.27
2018-09-12T00:39:25.663Z,793.3
2018-09-12T00:39:29.879Z,793.22
2018-09-12T00:39:34.187Z,793.21
2018-09-12T00:39:38.279Z,793.24
2018-09-12T00:39:42.374Z,793.29
2018-09-12T00:39:46.684Z,793.25
2018-09-12T00:39:50.885Z,793.25
2018-09-12T00:39:55.078Z,793.29
2018-09-12T00:39:59.396Z,793.26
2018-09-12T00:40:03.711Z,793.27
2018-09-12T00:40:07.591Z,793.25
2018-09-12T00:40:11.797Z,793.25
2018-09-12T00:40:16.004Z,793.23
2018-09-12T00:40:20.210Z,793.25
2018-09-12T00:40:24.308Z,793.23
2018-09-12T00:40:28.507Z,793.22
2018-09-12T00:40:32.706Z,793.22
2018-09-12T00:40:36.908Z,793.16
2018-09-12T00:40:41.107Z,793.2
2018-09-12T00:40:45.429Z,793.24
2018-09-12T00:40:49.627Z,793.21
2018-09-12T00:40:53.831Z,793.21
2018-09-12T00:40:58.028Z,793.21
2018-09-12T00:41:02.330Z,793.21
2018-09-12T00:41:06.318Z,793.23
2018-09-12T00:41:10.513Z,793.17
2018-09-12T00:41:14.827Z,793.22
2018-09-12T00:41:19.132Z,793.19
2018-09-12T00:41:23.441Z,793.18
2018-09-12T00:41:27.639Z,793.21
2018-09-12T00:41:31.734Z,793.18
2018-09-12T00:41:35.936Z,793.18
2018-09-12T00:41:40.145Z,793.12
2018-09-12T00:41:44.243Z,793.18
2018-09-12T00:41:48.445Z,793.16
2018-09-12T00:41:52.648Z,793.16
2018-09-12T00:41:56.957Z,793.19
2018-09-12T00:42:01.152Z,793.14
2018-09-12T00:42:05.353Z,793.17
2018-09-12T00:42:09.665Z,793.18
2018-09-12T00:42:13.974Z,793.17
2018-09-12T00:42:18.286Z,793.12
2018-09-12T00:42:22.589Z,793.16
2018-09-12T00:42:26.863Z,793.16
2018-09-12T00:42:30.955Z,793.18
2018-09-12T00:42:35.158Z,793.15
2018-09-12T00:42:39.359Z,793.14
2018-09-12T00:42:43.453Z,793.13
2018-09-12T00:42:47.769Z,793.11
2018-09-12T00:42:52.079Z,793.11
2018-09-12T00:42:56.289Z,793.13
2018-09-12T00:43:00.605Z,793.15
2018-09-12T00:43:04.811Z,793.13
2018-09-12T00:43:09.128Z,793.08
2018-09-12T00:43:13.328Z,793.11
2018-09-12T00:43:17.428Z,793.07
2018-09-12T00:43:21.631Z,793.06
2018-09-12T00:43:25.833Z,793.07
2018-09-12T00:43:29.984Z,793.09
2018-09-12T00:43:34.084Z,793.07
2018-09-12T00:43:38.286Z,793.04
2018-09-12T00:43:42.594Z,793.08
2018-09-12T00:43:46.789Z,793.05
2018-09-12T00:43:50.992Z,793.08
2018-09-12T00:43:55.084Z,793.06
2018-09-12T00:43:59.287Z,793.05
2018-09-12T00:44:03.490Z,793.07
2018-09-12T00:44:07.689Z,793.04
2018-09-12T00:44:11.676Z,793.05
2018-09-12T00:44:15.868Z,793.02
2018-09-12T00:44:20.187Z,793.04
2018-09-12T00:44:24.490Z,793.03
2018-09-12T00:44:28.698Z,793.02
2018-09-12T00:44:32.794Z,793
2018-09-12T00:44:37.105Z,793
2018-09-12T00:44:41.412Z,793
2018-09-12T00:44:45.725Z,792.97
2018-09-12T00:44:50.041Z,792.99
2018-09-12T00:44:54.241Z,792.99
2018-09-12T00:44:58.556Z,793
2018-09-12T00:45:02.763Z,792.97
2018-09-12T00:45:07.066Z,792.94
2018-09-12T00:45:11.168Z,792.93
2018-09-12T00:45:15.367Z,792.92
2018-09-12T00:45:19.678Z,792.98
2018-09-12T00:45:23.878Z,792.94
2018-09-12T00:45:27.979Z,792.92
2018-09-12T00:45:32.179Z,792.93
2018-09-12T00:45:36.374Z,792.91
2018-09-12T00:45:40.475Z,792.89
2018-09-12T00:45:44.776Z,792.92
2018-09-12T00:45:49.086Z,792.9
2018-09-12T00:45:53.392Z,792.91
2018-09-12T00:45:57.704Z,792.9
2018-09-12T00:46:01.903Z,792.88
2018-09-12T00:46:06.009Z,792.88
2018-09-12T00:46:09.994Z,792.89
2018-09-12T00:46:14.194Z,792.86
2018-09-12T00:46:18.286Z,792.87
2018-09-12T00:46:22.490Z,792.84
2018-09-12T00:46:26.681Z,792.85
2018-09-12T00:46:30.941Z,792.86
2018-09-12T00:46:35.139Z,792.84
2018-09-12T00:46:39.336Z,792.78
2018-09-12T00:46:43.641Z,792.82
2018-09-12T00:46:47.843Z,792.75
2018-09-12T00:46:51.931Z,792.81
2018-09-12T00:46:56.130Z,792.81
2018-09-12T00:47:00.442Z,792.73
2018-09-12T00:47:04.644Z,792.79
2018-09-12T00:47:08.865Z,792.8
2018-09-12T00:47:13.063Z,792.78
2018-09-12T00:47:17.158Z,792.73
2018-09-12T00:47:21.365Z,792.69
2018-09-12T00:47:25.564Z,792.71
2018-09-12T00:47:29.872Z,792.77
2018-09-12T00:47:34.070Z,792.71
2018-09-12T00:47:38.382Z,792.72
2018-09-12T00:47:42.468Z,792.71
2018-09-12T00:47:46.776Z,792.74
2018-09-12T00:47:51.085Z,792.73
2018-09-12T00:47:55.289Z,792.72
2018-09-12T00:47:59.604Z,792.69
2018-09-12T00:48:03.702Z,792.68
2018-09-12T00:48:08.063Z,792.66
2018-09-12T00:48:12.275Z,792.65
2018-09-12T00:48:16.476Z,792.66
2018-09-12T00:48:20.619Z,792.67
2018-09-12T00:48:24.821Z,792.68
2018-09-12T00:48:29.015Z,792.61
2018-09-12T00:48:33.004Z,792.61
2018-09-12T00:48:37.100Z,792.65
2018-09-12T00:48:41.409Z,792.62
2018-09-12T00:48:45.613Z,792.63
2018-09-12T00:48:49.814Z,792.65
2018-09-12T00:48:54.123Z,792.63
2018-09-12T00:48:58.439Z,792.63
2018-09-12T00:49:02.641Z,792.58
2018-09-12T00:49:06.735Z,792.6
2018-09-12T00:49:11.043Z,792.64
2018-09-12T00:49:15.351Z,792.6
2018-09-12T00:49:19.651Z,792.63
2018-09-12T00:49:23.856Z,792.6
2018-09-12T00:49:27.957Z,792.54
2018-09-12T00:49:32.060Z,792.51
2018-09-12T00:49:36.437Z,792.59
2018-09-12T00:49:40.536Z,792.54
2018-09-12T00:49:44.852Z,792.56
2018-09-12T00:49:49.156Z,792.57
2018-09-12T00:49:53.362Z,792.55
2018-09-12T00:49:57.673Z,792.56
2018-09-12T00:50:01.871Z,792.54
2018-09-12T00:50:05.862Z,792.54
2018-09-12T00:50:09.959Z,792.55
2018-09-12T00:50:14.157Z,792.54
2018-09-12T00:50:18.356Z,792.5
2018-09-12T00:50:22.667Z,792.54
2018-09-12T00:50:26.971Z,792.51
2018-09-12T00:50:31.286Z,792.48
2018-09-12T00:50:35.595Z,792.48
2018-09-12T00:50:39.790Z,792.45
2018-09-12T00:50:44.001Z,792.48
2018-09-12T00:50:48.100Z,792.47
2018-09-12T00:50:52.199Z,792.45
2018-09-12T00:50:56.509Z,792.42
2018-09-12T00:51:00.716Z,792.46
2018-09-12T00:51:05.016Z,792.43
2018-09-12T00:51:09.377Z,792.39
2018-09-12T00:51:13.475Z,792.38
2018-09-12T00:51:17.679Z,792.38
2018-09-12T00:51:21.995Z,792.43
2018-09-12T00:51:26.300Z,792.41
2018-09-12T00:51:30.404Z,792.43
2018-09-12T00:51:34.767Z,792.39
2018-09-12T00:51:38.968Z,792.41
2018-09-12T00:51:43.186Z,792.4
2018-09-12T00:51:47.502Z,792.32
2018-09-12T00:51:51.713Z,792.39
2018-09-12T00:51:55.817Z,792.37
2018-09-12T00:52:00.024Z,792.4
2018-09-12T00:52:04.123Z,792.38
2018-09-12T00:52:08.330Z,792.38
2018-09-12T00:52:12.537Z,792.36
2018-09-12T00:52:16.740Z,792.35
2018-09-12T00:52:21.044Z,792.31
2018-09-12T00:52:25.356Z,792.35
2018-09-12T00:52:29.672Z,792.3
2018-09-12T00:52:33.989Z,792.27